Time;durP1;ratioP1;P1;durP2;ratioP2;P2;SDS_P1;SDS_P2;PMS_P1;PMS_P2;Temp;Humidity;BMP_temperature;BMP_pressure;BME280_temperature;BME280_humidity;BME280_pressure;Samples;Min_cycle;Max_cycle;Signal;HPM_P1;HPM_P2
2023/09/06 00:00:52;;;;;;;4.53;2.93;;;19.50;43.60;;;;;;5077950;28;20414;-75
2023/09/06 00:03:18;;;;;;;8.90;2.90;;;19.50;43.80;;;;;;5078306;28;20760;-77
2023/09/06 00:05:44;;;;;;;4.30;2.90;;;19.50;43.60;;;;;;5079233;28;20455;-75
2023/09/06 00:08:12;;;;;;;5.10;3.00;;;19.40;43.80;;;;;;5078332;28;20391;-75
2023/09/06 00:10:39;;;;;;;5.13;2.90;;;19.40;43.70;;;;;;5078307;28;20379;-76
2023/09/06 00:13:10;;;;;;;7.47;2.90;;;19.30;44.40;;;;;;5078310;28;20384;-73
2023/09/06 00:15:35;;;;;;;5.95;2.67;;;19.20;44.80;;;;;;5060615;28;20395;-75
2023/09/06 00:18:03;;;;;;;3.90;2.70;;;19.20;45.00;;;;;;5077634;28;20387;-73
2023/09/06 00:20:30;;;;;;;5.95;2.85;;;19.20;44.70;;;;;;5078100;28;20761;-75
2023/09/06 00:22:57;;;;;;;3.25;2.53;;;19.20;44.90;;;;;;5077839;28;20701;-74
2023/09/06 00:25:25;;;;;;;6.03;3.00;;;19.10;45.40;;;;;;5078253;28;20864;-74
2023/09/06 00:27:50;;;;;;;4.85;2.70;;;19.10;45.90;;;;;;5077700;28;20402;-76
2023/09/06 00:30:18;;;;;;;4.10;2.30;;;19.10;45.50;;;;;;5077228;28;20376;-74
2023/09/06 00:32:47;;;;;;;3.30;2.58;;;19.10;45.80;;;;;;5077319;28;20380;-74
2023/09/06 00:35:16;;;;;;;4.45;2.50;;;19.00;45.60;;;;;;5078473;28;20891;-74
2023/09/06 00:37:42;;;;;;;4.90;2.65;;;19.00;46.00;;;;;;5061056;28;20867;-76
2023/09/06 00:40:18;;;;;;;3.88;2.72;;;19.00;46.00;;;;;;5077922;28;20400;-73
2023/09/06 00:42:50;;;;;;;5.25;2.70;;;19.20;44.80;;;;;;5078230;28;20811;-75
2023/09/06 00:45:19;;;;;;;3.65;2.90;;;19.00;45.40;;;;;;5079050;28;20384;-75
2023/09/06 00:47:45;;;;;;;3.40;2.80;;;18.80;46.20;;;;;;5080449;28;20372;-76
2023/09/06 00:50:11;;;;;;;4.82;3.08;;;18.70;47.10;;;;;;5080006;28;20456;-75
2023/09/06 00:52:37;;;;;;;4.05;2.80;;;18.60;47.90;;;;;;5077525;28;20755;-76
2023/09/06 00:55:03;;;;;;;5.63;3.00;;;18.50;48.40;;;;;;5076718;28;20392;-76
2023/09/06 00:57:29;;;;;;;6.57;3.10;;;18.60;48.60;;;;;;5076554;28;20449;-76
2023/09/06 00:59:58;;;;;;;3.90;3.30;;;18.50;48.60;;;;;;5058380;28;20923;-75
2023/09/06 01:02:24;;;;;;;6.38;3.10;;;18.40;49.50;;;;;;5075782;28;20391;-76
2023/09/06 01:04:50;;;;;;;5.63;3.08;;;18.40;49.80;;;;;;5058342;28;20449;-75
2023/09/06 01:07:17;;;;;;;3.60;2.90;;;18.60;49.60;;;;;;5076008;28;20625;-75
2023/09/06 01:09:43;;;;;;;4.55;3.45;;;18.50;49.60;;;;;;5076007;28;20402;-76
2023/09/06 01:12:12;;;;;;;4.90;3.28;;;18.40;50.10;;;;;;5076908;28;20517;-75
2023/09/06 01:14:40;;;;;;;4.95;3.17;;;18.70;49.70;;;;;;5077019;28;20395;-74
2023/09/06 01:17:06;;;;;;;5.18;3.00;;;18.70;49.30;;;;;;5076934;28;20941;-74
2023/09/06 01:19:34;;;;;;;5.57;3.00;;;18.50;50.60;;;;;;5076685;28;20384;-76
2023/09/06 01:22:22;;;;;;;4.25;3.00;;;18.20;52.50;;;;;;5058731;28;20391;-76
2023/09/06 01:24:49;;;;;;;3.55;3.20;;;18.10;54.00;;;;;;5077888;28;20384;-75
2023/09/06 01:27:14;;;;;;;6.57;3.75;;;18.00;54.50;;;;;;5075679;28;20415;-75
2023/09/06 01:29:40;;;;;;;5.18;3.10;;;18.00;55.60;;;;;;5075649;28;20388;-76
2023/09/06 01:32:06;;;;;;;3.83;3.40;;;17.80;56.60;;;;;;5076023;28;20396;-74
2023/09/06 01:34:32;;;;;;;4.73;3.23;;;17.80;57.40;;;;;;5075534;28;20380;-76
2023/09/06 01:36:57;;;;;;;5.77;2.90;;;17.70;58.50;;;;;;5076559;28;20383;-76
2023/09/06 01:39:23;;;;;;;9.10;3.40;;;17.60;59.20;;;;;;5075854;28;20382;-75
2023/09/06 01:41:49;;;;;;;6.53;3.40;;;17.60;60.10;;;;;;5075609;28;20913;-75
2023/09/06 01:44:14;;;;;;;4.78;3.55;;;17.70;59.80;;;;;;5075286;28;20445;-75
2023/09/06 01:46:40;;;;;;;3.77;3.00;;;17.60;60.10;;;;;;5075115;28;20391;-75
2023/09/06 01:49:08;;;;;;;4.43;3.00;;;17.60;60.60;;;;;;5074829;28;20392;-75
2023/09/06 01:51:34;;;;;;;4.97;3.63;;;17.60;60.60;;;;;;5075015;28;20433;-76
2023/09/06 01:54:04;;;;;;;4.50;3.30;;;17.50;61.10;;;;;;5075150;28;20380;-75
2023/09/06 01:56:30;;;;;;;9.80;3.60;;;17.50;61.10;;;;;;5075998;28;20384;-74
2023/09/06 01:58:55;;;;;;;5.53;3.75;;;17.40;61.80;;;;;;5082694;28;20403;-74
2023/09/06 02:01:21;;;;;;;5.80;3.50;;;17.40;62.60;;;;;;5091210;28;20411;-74
2023/09/06 02:03:46;;;;;;;3.65;3.20;;;17.80;60.10;;;;;;5080726;28;20820;-76
2023/09/06 02:06:12;;;;;;;4.53;3.40;;;17.90;59.00;;;;;;5079240;28;20386;-76
2023/09/06 02:08:39;;;;;;;3.40;3.10;;;17.90;57.90;;;;;;5079344;28;20409;-74
2023/09/06 02:11:06;;;;;;;6.32;3.22;;;18.00;56.90;;;;;;5076785;28;20471;-76
2023/09/06 02:13:32;;;;;;;5.05;3.42;;;18.00;56.80;;;;;;5074450;28;20384;-76
2023/09/06 02:15:59;;;;;;;4.45;3.50;;;17.90;57.50;;;;;;5074728;28;20453;-75
2023/09/06 02:18:26;;;;;;;6.18;3.58;;;17.80;58.10;;;;;;5074580;28;20868;-76
2023/09/06 02:20:55;;;;;;;5.00;3.33;;;17.70;59.30;;;;;;5073472;28;20419;-74
2023/09/06 02:23:21;;;;;;;4.78;3.80;;;17.60;61.00;;;;;;5074035;28;20414;-75
2023/09/06 02:25:47;;;;;;;5.80;3.63;;;17.50;62.40;;;;;;5074378;28;20431;-75
2023/09/06 02:28:14;;;;;;;6.22;3.75;;;17.80;59.80;;;;;;5075238;28;20379;-75
2023/09/06 02:30:41;;;;;;;4.30;3.22;;;17.70;59.50;;;;;;5074254;28;20390;-76
2023/09/06 02:33:13;;;;;;;5.10;3.30;;;17.50;61.00;;;;;;5073333;28;20383;-75
2023/09/06 02:35:41;;;;;;;3.50;3.20;;;17.30;62.90;;;;;;5074258;28;20380;-74
2023/09/06 02:38:08;;;;;;;5.22;3.60;;;17.30;63.50;;;;;;5074388;28;20388;-75
2023/09/06 02:40:34;;;;;;;4.10;3.40;;;17.30;64.20;;;;;;5055862;28;20400;-74
2023/09/06 02:43:01;;;;;;;6.00;3.60;;;17.30;64.30;;;;;;5073402;28;20410;-75
2023/09/06 02:45:36;;;;;;;5.90;3.53;;;17.20;64.40;;;;;;5074390;28;20376;-75
2023/09/06 02:48:12;;;;;;;7.40;3.95;;;17.10;65.40;;;;;;5074925;28;20467;-73
2023/09/06 02:50:39;;;;;;;4.13;3.55;;;17.50;61.80;;;;;;5058204;28;20390;-76
2023/09/06 02:53:15;;;;;;;8.95;4.07;;;17.80;58.50;;;;;;5075499;28;20466;-75
2023/09/06 02:55:41;;;;;;;5.03;3.60;;;17.90;58.10;;;;;;5076151;28;20449;-76
2023/09/06 02:58:07;;;;;;;4.43;3.63;;;17.70;58.80;;;;;;5075216;28;20384;-76
2023/09/06 03:00:36;;;;;;;5.40;3.47;;;17.40;61.60;;;;;;5074421;28;20404;-75
2023/09/06 03:03:05;;;;;;;5.90;4.03;;;17.10;64.50;;;;;;5068432;22;20516;-76
2023/09/06 03:05:42;;;;;;;5.68;3.22;;;17.00;67.00;;;;;;5053018;28;20436;-78
2023/09/06 03:08:09;;;;;;;5.40;3.60;;;16.80;69.10;;;;;;5052559;28;20402;-77
2023/09/06 03:10:35;;;;;;;4.07;3.50;;;16.70;70.80;;;;;;5053122;28;20408;-77
2023/09/06 03:13:02;;;;;;;8.40;3.90;;;16.70;72.60;;;;;;5052211;28;20389;-77
2023/09/06 03:15:28;;;;;;;7.95;4.20;;;16.70;73.10;;;;;;5052282;28;20754;-76
2023/09/06 03:17:54;;;;;;;6.07;4.13;;;17.00;71.10;;;;;;5053988;28;20384;-77
2023/09/06 03:21:04;;;;;;;7.03;3.67;;;17.40;66.80;;;;;;5053532;28;20393;-77
2023/09/06 03:23:17;;;;;;;4.43;4.03;;;17.10;68.10;;;;;;5038215;28;20398;-78
2023/09/06 03:25:45;;;;;;;6.90;4.50;;;17.20;67.30;;;;;;5052624;28;20392;-77
2023/09/06 03:28:11;;;;;;;6.45;4.00;;;17.10;68.60;;;;;;5052569;28;20400;-77
2023/09/06 03:30:38;;;;;;;4.78;3.83;;;17.10;67.90;;;;;;5051814;28;20386;-78
2023/09/06 03:33:05;;;;;;;7.03;4.30;;;17.30;65.40;;;;;;5052384;28;20472;-76
2023/09/06 03:35:31;;;;;;;5.03;3.97;;;17.50;63.40;;;;;;5052988;28;20508;-77
2023/09/06 03:37:57;;;;;;;7.95;4.10;;;17.40;63.40;;;;;;5054541;28;20853;-77
2023/09/06 03:40:35;;;;;;;7.03;4.50;;;17.30;64.80;;;;;;5056227;28;20423;-77
2023/09/06 03:43:14;;;;;;;8.82;4.63;;;17.50;63.80;;;;;;5047973;28;20447;-77
2023/09/06 03:45:51;;;;;;;9.75;4.38;;;17.50;64.10;;;;;;5066096;28;20488;-77
2023/09/06 03:48:22;;;;;;;5.50;3.75;;;17.30;65.00;;;;;;5054593;28;20760;-77
2023/09/06 03:50:51;;;;;;;6.30;4.30;;;17.00;68.10;;;;;;5053483;28;20754;-76
2023/09/06 03:53:17;;;;;;;6.13;4.60;;;16.80;71.60;;;;;;5051524;28;20390;-77
2023/09/06 03:55:43;;;;;;;6.67;3.93;;;16.60;73.90;;;;;;5050963;28;20433;-77
2023/09/06 03:58:10;;;;;;;7.20;4.50;;;16.50;74.80;;;;;;5064432;28;20403;-76
2023/09/06 04:00:39;;;;;;;5.82;3.80;;;16.40;75.90;;;;;;5062707;28;20408;-77
2023/09/06 04:03:07;;;;;;;8.15;4.00;;;16.40;77.40;;;;;;5034037;28;20408;-76
2023/09/06 04:05:33;;;;;;;5.65;3.85;;;16.30;78.20;;;;;;5033362;28;20393;-77
2023/09/06 04:08:04;;;;;;;6.30;4.20;;;16.30;79.10;;;;;;5052260;28;20385;-77
2023/09/06 04:10:36;;;;;;;9.15;4.63;;;16.40;79.20;;;;;;5052662;28;20727;-78
2023/09/06 04:13:03;;;;;;;7.10;4.15;;;16.50;77.30;;;;;;5040089;28;20389;-77
2023/09/06 04:15:29;;;;;;;6.80;3.95;;;16.40;76.90;;;;;;5032019;28;20731;-76
2023/09/06 04:17:59;;;;;;;6.50;4.20;;;16.40;76.80;;;;;;5050626;28;20921;-76
2023/09/06 04:20:35;;;;;;;5.00;4.00;;;16.40;76.20;;;;;;5053297;28;20405;-76
2023/09/06 04:23:01;;;;;;;5.30;4.10;;;16.40;75.50;;;;;;5053089;28;20381;-76
2023/09/06 04:25:28;;;;;;;5.95;3.80;;;16.60;73.60;;;;;;5053170;28;20468;-76
2023/09/06 04:27:57;;;;;;;4.72;3.70;;;16.70;73.30;;;;;;5053100;28;20378;-76
2023/09/06 04:30:24;;;;;;;5.90;4.00;;;16.60;71.90;;;;;;5053484;28;20389;-76
2023/09/06 04:32:52;;;;;;;6.32;3.60;;;16.60;71.40;;;;;;5053189;28;20412;-76
2023/09/06 04:35:18;;;;;;;4.85;4.05;;;16.60;71.80;;;;;;5053490;28;20468;-77
2023/09/06 04:37:44;;;;;;;7.90;4.00;;;16.60;72.50;;;;;;5055244;28;20417;-76
2023/09/06 04:40:11;;;;;;;7.50;4.30;;;16.60;72.10;;;;;;5054740;28;20404;-76
2023/09/06 04:42:39;;;;;;;4.68;4.18;;;16.60;71.80;;;;;;5052871;28;20670;-76
2023/09/06 04:45:06;;;;;;;10.37;4.30;;;16.80;71.40;;;;;;5053714;28;20386;-76
2023/09/06 04:47:32;;;;;;;8.25;4.82;;;16.70;72.20;;;;;;5053071;28;20373;-76
2023/09/06 04:49:58;;;;;;;6.00;4.20;;;16.60;72.30;;;;;;5035329;28;20411;-75
2023/09/06 04:52:26;;;;;;;6.45;3.80;;;16.70;70.80;;;;;;5053645;28;20459;-76
2023/09/06 04:54:52;;;;;;;4.90;4.05;;;16.80;68.40;;;;;;5054051;28;20397;-76
2023/09/06 04:57:18;;;;;;;8.30;4.17;;;16.80;68.20;;;;;;5052906;28;20386;-76
2023/09/06 04:59:43;;;;;;;5.90;4.22;;;16.80;68.10;;;;;;5052652;28;20398;-76
2023/09/06 05:02:09;;;;;;;5.90;4.13;;;16.80;68.40;;;;;;5052505;28;20407;-76
2023/09/06 05:04:36;;;;;;;6.88;4.38;;;16.80;67.50;;;;;;5052549;28;20393;-77
2023/09/06 05:07:03;;;;;;;5.30;4.00;;;16.80;67.30;;;;;;5052262;28;20410;-78
2023/09/06 05:09:28;;;;;;;6.10;4.23;;;16.80;66.90;;;;;;5052742;28;20390;-76
2023/09/06 05:11:54;;;;;;;6.07;4.10;;;16.80;67.60;;;;;;5052566;28;20385;-76
2023/09/06 05:14:20;;;;;;;5.97;4.00;;;16.80;67.60;;;;;;5053930;28;20391;-76
2023/09/06 05:16:45;;;;;;;7.57;4.10;;;16.90;66.90;;;;;;5052939;28;20730;-76
2023/09/06 05:19:11;;;;;;;7.75;4.20;;;16.90;66.10;;;;;;5051030;28;20448;-76
2023/09/06 05:21:36;;;;;;;8.93;4.53;;;17.10;62.60;;;;;;5031648;28;20422;-76
2023/09/06 05:24:02;;;;;;;5.43;3.83;;;17.20;61.40;;;;;;5031383;28;20462;-77
2023/09/06 05:26:28;;;;;;;5.95;4.30;;;17.30;61.10;;;;;;5037682;28;20823;-76
2023/09/06 05:28:54;;;;;;;8.00;4.18;;;17.30;60.10;;;;;;5033430;28;20883;-76
2023/09/06 05:31:20;;;;;;;7.47;4.10;;;17.30;59.60;;;;;;5051782;28;20396;-79
2023/09/06 05:33:46;;;;;;;5.10;3.90;;;17.30;59.00;;;;;;5053323;28;20446;-76
2023/09/06 05:36:12;;;;;;;5.70;4.10;;;17.40;57.90;;;;;;5052608;28;20430;-76
2023/09/06 05:38:38;;;;;;;6.03;3.93;;;17.40;58.00;;;;;;5052244;28;20785;-76
2023/09/06 05:41:03;;;;;;;5.30;4.17;;;17.60;57.70;;;;;;5052248;28;20439;-76
2023/09/06 05:43:29;;;;;;;5.80;4.00;;;17.80;54.80;;;;;;5051267;28;20393;-76
2023/09/06 05:45:54;;;;;;;7.95;4.43;;;18.00;53.60;;;;;;5052553;28;20389;-75
2023/09/06 05:48:20;;;;;;;7.00;4.83;;;18.10;52.70;;;;;;5051906;28;20393;-74
2023/09/06 05:50:46;;;;;;;5.95;3.92;;;18.30;50.80;;;;;;5053111;28;20750;-79
2023/09/06 05:53:12;;;;;;;6.53;4.85;;;18.30;49.80;;;;;;5054304;28;20435;-77
2023/09/06 05:55:38;;;;;;;15.60;10.05;;;18.40;49.30;;;;;;5032142;28;20397;-76
2023/09/06 05:58:04;;;;;;;14.32;9.95;;;18.70;47.30;;;;;;5052385;28;20735;-77
2023/09/06 06:00:30;;;;;;;11.73;7.05;;;18.90;45.00;;;;;;5052969;28;20409;-76
2023/09/06 06:02:55;;;;;;;10.63;6.65;;;19.00;44.90;;;;;;5052402;28;20433;-76
2023/09/06 06:05:21;;;;;;;9.63;4.50;;;19.00;44.40;;;;;;5032977;28;20409;-77
2023/09/06 06:07:47;;;;;;;8.15;3.97;;;19.10;43.80;;;;;;5038716;28;20885;-77
2023/09/06 06:10:13;;;;;;;7.33;3.87;;;19.10;43.30;;;;;;5050394;28;20397;-77
2023/09/06 06:12:39;;;;;;;8.85;3.90;;;19.20;42.40;;;;;;5046491;28;20389;-76
2023/09/06 06:15:08;;;;;;;6.70;3.83;;;19.40;41.60;;;;;;5051083;28;20413;-76
2023/09/06 06:17:34;;;;;;;5.10;4.00;;;19.40;41.10;;;;;;5051665;28;20389;-75
2023/09/06 06:20:00;;;;;;;6.15;3.90;;;19.70;39.40;;;;;;5050065;28;20489;-77
2023/09/06 06:22:25;;;;;;;6.82;3.65;;;19.80;38.20;;;;;;5049418;28;20932;-76
2023/09/06 06:24:51;;;;;;;6.30;4.03;;;19.90;38.00;;;;;;5047750;28;20394;-76
2023/09/06 06:27:16;;;;;;;4.80;3.40;;;20.00;37.50;;;;;;5052940;28;20382;-75
2023/09/06 06:29:42;;;;;;;7.87;4.10;;;20.10;37.50;;;;;;5049578;28;20787;-76
2023/09/06 06:32:08;;;;;;;7.83;3.90;;;20.30;37.00;;;;;;5049014;28;20397;-76
2023/09/06 06:34:36;;;;;;;7.37;3.47;;;20.40;36.00;;;;;;5051827;28;20488;-75
2023/09/06 06:37:01;;;;;;;4.38;3.45;;;20.50;35.10;;;;;;5055097;28;20381;-75
2023/09/06 06:39:27;;;;;;;5.57;3.70;;;20.70;34.70;;;;;;5052352;28;20390;-75
2023/09/06 06:41:52;;;;;;;6.13;3.80;;;20.80;33.80;;;;;;5026668;28;20774;-77
2023/09/06 06:44:18;;;;;;;5.18;3.40;;;20.90;33.80;;;;;;5051262;28;20894;-76
2023/09/06 06:46:44;;;;;;;8.43;3.73;;;21.00;33.20;;;;;;5052003;28;20400;-76
2023/09/06 06:49:09;;;;;;;7.15;4.10;;;21.00;33.80;;;;;;5053696;28;20389;-76
2023/09/06 06:51:41;;;;;;;7.32;3.40;;;21.10;33.10;;;;;;5054259;28;20412;-77
2023/09/06 06:54:08;;;;;;;6.70;3.80;;;21.20;32.50;;;;;;5051566;28;20455;-76
2023/09/06 06:56:37;;;;;;;5.03;3.80;;;21.30;32.20;;;;;;5054392;28;20396;-76
2023/09/06 06:59:09;;;;;;;5.13;3.67;;;21.40;32.20;;;;;;5050335;28;20474;-76
2023/09/06 07:01:35;;;;;;;5.53;3.60;;;21.50;31.90;;;;;;5035398;28;20418;-75
2023/09/06 07:04:04;;;;;;;7.55;4.10;;;21.60;31.20;;;;;;5029139;28;20475;-76
2023/09/06 07:06:30;;;;;;;6.25;3.90;;;21.70;31.40;;;;;;5029602;28;20747;-76
2023/09/06 07:08:56;;;;;;;5.73;3.77;;;21.70;31.30;;;;;;5030589;28;20530;-77
2023/09/06 07:11:22;;;;;;;5.00;3.40;;;21.80;31.10;;;;;;5029900;28;20399;-76
2023/09/06 07:13:49;;;;;;;6.18;3.70;;;21.80;30.90;;;;;;5030305;28;20500;-76
2023/09/06 07:16:16;;;;;;;7.57;4.03;;;22.00;31.20;;;;;;5034766;28;20741;-76
2023/09/06 07:18:42;;;;;;;4.63;3.35;;;22.10;30.50;;;;;;5048240;28;20393;-76
2023/09/06 07:21:08;;;;;;;5.50;3.85;;;22.10;29.90;;;;;;5045419;28;20413;-76
2023/09/06 07:23:33;;;;;;;7.18;3.75;;;22.20;29.60;;;;;;5048308;28;20761;-76
2023/09/06 07:25:59;;;;;;;21.43;8.17;;;22.30;29.70;;;;;;5046557;28;20791;-77
2023/09/06 07:28:25;;;;;;;3.65;3.13;;;22.40;29.00;;;;;;5046590;28;20433;-76
2023/09/06 07:30:50;;;;;;;8.25;5.15;;;22.40;29.00;;;;;;5043634;28;20398;-76
2023/09/06 07:33:16;;;;;;;10.37;3.73;;;22.50;29.00;;;;;;5049160;28;20521;-77
2023/09/06 07:35:42;;;;;;;5.10;3.65;;;22.50;28.70;;;;;;5044186;28;20414;-77
2023/09/06 07:38:08;;;;;;;7.35;4.35;;;22.60;28.50;;;;;;5039935;28;20406;-77
2023/09/06 07:40:34;;;;;;;5.93;4.22;;;22.70;28.40;;;;;;5053365;28;20405;-77
2023/09/06 07:43:00;;;;;;;7.78;5.00;;;22.80;28.00;;;;;;5056200;28;20408;-77
2023/09/06 07:45:26;;;;;;;6.87;4.70;;;22.80;28.00;;;;;;5045237;28;20395;-77
2023/09/06 07:47:53;;;;;;;10.93;5.20;;;22.90;27.40;;;;;;5037086;28;20489;-77
2023/09/06 07:50:20;;;;;;;9.00;4.68;;;23.00;27.70;;;;;;5045278;28;20762;-77
2023/09/06 07:52:46;;;;;;;4.88;4.00;;;23.10;27.10;;;;;;5037585;28;20877;-77
2023/09/06 07:55:15;;;;;;;6.82;3.90;;;23.10;26.90;;;;;;5061645;28;20397;-77
2023/09/06 07:57:40;;;;;;;6.30;3.88;;;23.20;26.80;;;;;;5050981;28;20411;-77
2023/09/06 08:00:08;;;;;;;8.30;4.00;;;23.30;26.30;;;;;;5038966;28;20426;-77
2023/09/06 08:02:33;;;;;;;6.38;4.40;;;23.40;25.80;;;;;;5007639;28;20468;-77
2023/09/06 08:04:59;;;;;;;5.83;4.13;;;23.40;25.40;;;;;;5044079;28;20387;-77
2023/09/06 08:07:25;;;;;;;7.70;4.30;;;23.50;26.40;;;;;;5043222;28;20440;-77
2023/09/06 08:09:50;;;;;;;6.07;3.85;;;23.50;25.60;;;;;;5065410;28;20393;-77
2023/09/06 08:12:19;;;;;;;5.50;4.10;;;23.60;25.80;;;;;;5047907;28;20478;-77
2023/09/06 08:14:44;;;;;;;5.30;3.80;;;23.70;25.80;;;;;;5026411;28;20492;-76
2023/09/06 08:17:10;;;;;;;5.83;4.30;;;23.70;25.50;;;;;;5050741;28;20402;-76
2023/09/06 08:19:36;;;;;;;5.25;3.65;;;23.70;25.50;;;;;;5056781;28;20492;-77
2023/09/06 08:22:01;;;;;;;6.80;4.70;;;23.70;25.90;;;;;;5057335;28;20389;-77
2023/09/06 08:24:30;;;;;;;6.60;3.72;;;23.90;25.20;;;;;;5057562;28;20453;-77
2023/09/06 08:26:56;;;;;;;7.90;4.65;;;24.00;24.00;;;;;;5059068;28;20420;-76
2023/09/06 08:29:22;;;;;;;8.93;5.78;;;24.10;23.80;;;;;;5059011;28;20389;-77
2023/09/06 08:31:47;;;;;;;10.00;6.43;;;24.10;23.90;;;;;;5062123;28;20386;-75
2023/09/06 08:34:13;;;;;;;13.63;8.00;;;24.20;24.60;;;;;;5057274;28;20440;-77
2023/09/06 08:36:38;;;;;;;6.97;4.60;;;24.30;23.40;;;;;;5045751;28;20386;-78
2023/09/06 08:39:06;;;;;;;8.03;5.40;;;24.30;22.60;;;;;;5038554;28;20400;-78
2023/09/06 08:41:32;;;;;;;4.72;3.63;;;24.40;22.10;;;;;;5035566;28;20441;-77
2023/09/06 08:44:03;;;;;;;10.50;6.75;;;24.40;21.90;;;;;;5035256;28;20383;-76
2023/09/06 08:46:33;;;;;;;5.28;4.10;;;24.50;21.70;;;;;;5034074;28;20383;-78
2023/09/06 08:49:37;;;;;;;9.30;5.13;;;24.60;20.60;;;;;;5037151;28;20417;-78
2023/09/06 08:52:05;;;;;;;8.02;5.50;;;24.70;21.30;;;;;;5035676;28;20395;-78
2023/09/06 08:54:33;;;;;;;10.38;4.70;;;24.90;21.70;;;;;;5036326;28;20390;-77
2023/09/06 08:56:59;;;;;;;7.47;4.10;;;24.90;20.80;;;;;;5038864;28;20383;-77
2023/09/06 08:59:25;;;;;;;10.00;5.28;;;24.90;20.30;;;;;;5037907;28;20391;-78
2023/09/06 09:01:50;;;;;;;10.27;5.90;;;24.90;21.00;;;;;;5034651;28;20422;-77
2023/09/06 09:04:17;;;;;;;10.40;4.80;;;25.10;20.00;;;;;;5044391;28;20403;-79
2023/09/06 09:06:43;;;;;;;7.57;5.43;;;25.20;19.70;;;;;;5042119;28;20391;-78
2023/09/06 09:09:17;;;;;;;7.88;5.30;;;25.20;19.30;;;;;;5042385;28;20394;-78
2023/09/06 09:11:53;;;;;;;5.28;4.10;;;25.20;19.30;;;;;;5043217;28;20410;-78
2023/09/06 09:14:23;;;;;;;8.55;5.10;;;25.20;19.50;;;;;;5027795;28;20903;-78
2023/09/06 09:16:56;;;;;;;9.57;5.78;;;25.30;20.00;;;;;;5046367;28;20402;-77
2023/09/06 09:19:22;;;;;;;11.60;5.15;;;25.40;18.80;;;;;;5047873;28;20389;-78
2023/09/06 09:21:50;;;;;;;9.25;6.15;;;25.40;18.50;;;;;;5042726;28;20457;-78
2023/09/06 09:24:27;;;;;;;7.00;5.20;;;25.50;18.90;;;;;;5034170;28;20444;-77
2023/09/06 09:26:53;;;;;;;9.48;6.80;;;25.50;17.90;;;;;;5033714;28;20406;-77
2023/09/06 09:29:19;;;;;;;9.10;5.68;;;25.60;18.00;;;;;;5033657;28;20864;-77
2023/09/06 09:31:46;;;;;;;11.15;5.20;;;25.70;17.70;;;;;;5037323;28;20418;-78
2023/09/06 09:34:12;;;;;;;6.47;4.50;;;25.70;17.30;;;;;;5034401;28;20398;-78
2023/09/06 09:36:38;;;;;;;9.53;5.13;;;25.90;17.30;;;;;;5034493;28;20834;-78
2023/09/06 09:39:08;;;;;;;8.60;5.40;;;26.00;16.90;;;;;;5038700;28;20387;-77
2023/09/06 09:41:34;;;;;;;5.80;4.07;;;26.00;16.70;;;;;;5048088;28;20405;-77
2023/09/06 09:44:14;;;;;;;9.93;5.05;;;26.10;15.20;;;;;;5046863;28;20383;-78
2023/09/06 09:46:44;;;;;;;10.50;5.72;;;26.10;15.50;;;;;;5034435;28;20386;-78
2023/09/06 09:49:11;;;;;;;11.35;8.50;;;26.30;15.60;;;;;;5023391;28;20391;-78
2023/09/06 09:51:38;;;;;;;9.30;5.30;;;26.30;15.20;;;;;;5026562;28;20398;-78
2023/09/06 09:54:05;;;;;;;6.93;4.80;;;26.30;15.20;;;;;;5050524;28;20398;-78
2023/09/06 09:56:33;;;;;;;8.30;4.50;;;26.50;14.10;;;;;;5049110;28;20387;-78
2023/09/06 09:59:02;;;;;;;9.30;4.90;;;26.50;14.60;;;;;;5047825;28;20391;-78
2023/09/06 10:01:28;;;;;;;8.10;4.60;;;26.60;14.60;;;;;;5048057;28;20403;-79
2023/09/06 10:03:57;;;;;;;5.65;4.38;;;26.70;14.00;;;;;;5042708;28;20410;-80
2023/09/06 10:06:27;;;;;;;9.15;5.15;;;26.70;14.20;;;;;;5047963;28;20387;-78
2023/09/06 10:08:58;;;;;;;8.15;5.45;;;26.80;13.80;;;;;;5046533;28;20421;-79
2023/09/06 10:11:25;;;;;;;6.55;4.70;;;26.80;13.70;;;;;;5047290;28;20386;-79
2023/09/06 10:13:52;;;;;;;7.87;4.73;;;26.90;13.10;;;;;;5043120;28;20863;-77
2023/09/06 10:16:21;;;;;;;6.93;4.85;;;26.90;11.40;;;;;;5041840;28;20386;-80
2023/09/06 10:18:48;;;;;;;7.40;4.32;;;27.00;12.40;;;;;;5042645;28;20395;-78
2023/09/06 10:21:15;;;;;;;4.53;3.90;;;27.00;11.60;;;;;;5043744;28;20406;-79
2023/09/06 10:23:46;;;;;;;7.10;4.63;;;27.10;11.60;;;;;;5046262;28;20387;-79
2023/09/06 10:26:29;;;;;;;10.02;5.78;;;27.30;12.10;;;;;;5044955;28;20394;-78
2023/09/06 10:28:59;;;;;;;8.82;4.90;;;27.30;11.90;;;;;;5040987;28;20407;-78
2023/09/06 10:31:35;;;;;;;7.10;5.20;;;27.40;12.20;;;;;;5025754;28;20417;-79
2023/09/06 10:34:02;;;;;;;4.25;3.85;;;27.50;12.60;;;;;;5041349;28;20394;-80
2023/09/06 10:36:28;;;;;;;5.20;4.23;;;27.40;11.30;;;;;;5043905;28;20482;-78
2023/09/06 10:38:58;;;;;;;9.60;4.80;;;27.50;11.80;;;;;;5042247;28;20390;-78
2023/09/06 10:41:26;;;;;;;6.35;4.80;;;27.50;11.90;;;;;;5043824;28;20780;-79
2023/09/06 10:43:57;;;;;;;8.15;5.00;;;27.60;11.40;;;;;;5043124;28;20453;-78
2023/09/06 10:46:26;;;;;;;6.40;4.70;;;27.60;11.50;;;;;;5041779;28;20437;-78
2023/09/06 10:49:14;;;;;;;6.05;4.50;;;27.60;11.10;;;;;;5044261;28;20447;-79
2023/09/06 10:51:59;;;;;;;5.97;4.75;;;27.70;11.60;;;;;;5043939;28;20422;-79
2023/09/06 10:54:35;;;;;;;8.05;4.82;;;27.80;10.40;;;;;;5044284;28;20479;-79
2023/09/06 10:57:06;;;;;;;7.10;4.88;;;27.90;10.30;;;;;;5043397;28;20411;-79
2023/09/06 10:59:35;;;;;;;6.97;4.43;;;28.00;10.50;;;;;;5026131;28;20508;-79
2023/09/06 11:02:15;;;;;;;5.88;4.40;;;28.00;10.90;;;;;;5025126;28;20783;-79
2023/09/06 11:04:42;;;;;;;8.43;4.60;;;28.10;10.70;;;;;;5024956;28;20395;-79
2023/09/06 11:07:11;;;;;;;5.43;4.50;;;28.10;10.30;;;;;;5042968;28;20459;-78
2023/09/06 11:09:50;;;;;;;8.05;4.95;;;28.10;9.40;;;;;;5043165;28;20463;-78
2023/09/06 11:12:17;;;;;;;6.30;4.60;;;28.10;9.90;;;;;;5033374;28;20453;-79
2023/09/06 11:14:47;;;;;;;5.57;4.40;;;28.20;9.80;;;;;;5053880;28;20459;-78
2023/09/06 11:17:23;;;;;;;7.80;4.50;;;28.20;10.10;;;;;;5040809;28;20868;-77
2023/09/06 11:19:49;;;;;;;7.80;4.80;;;28.30;9.30;;;;;;5040203;28;20406;-77
2023/09/06 11:22:16;;;;;;;5.20;4.20;;;28.30;9.80;;;;;;5046056;28;20387;-78
2023/09/06 11:24:42;;;;;;;4.93;4.00;;;28.40;9.00;;;;;;5041407;28;20409;-78
2023/09/06 11:27:17;;;;;;;7.28;4.55;;;28.40;10.20;;;;;;5033741;28;20477;-78
2023/09/06 11:29:43;;;;;;;6.47;4.65;;;28.40;10.20;;;;;;5039157;28;20414;-78
2023/09/06 11:32:13;;;;;;;5.60;4.00;;;28.40;10.60;;;;;;5040517;28;20442;-78
2023/09/06 11:34:45;;;;;;;8.35;4.10;;;28.40;9.10;;;;;;5046778;28;20379;-79
2023/09/06 11:37:15;;;;;;;5.55;4.20;;;28.40;10.40;;;;;;5050137;28;20441;-78
2023/09/06 11:39:57;;;;;;;5.00;4.50;;;28.50;11.10;;;;;;5049325;28;20474;-79
2023/09/06 11:42:31;;;;;;;4.22;3.70;;;28.50;10.40;;;;;;5046519;28;20382;-79
2023/09/06 11:44:59;;;;;;;7.05;4.20;;;28.50;9.90;;;;;;5048343;28;20417;-78
2023/09/06 11:47:27;;;;;;;7.57;3.85;;;28.60;10.20;;;;;;5030447;28;20445;-78
2023/09/06 11:49:55;;;;;;;5.70;3.90;;;28.70;9.90;;;;;;5040800;28;20387;-78
2023/09/06 11:52:23;;;;;;;5.32;3.80;;;28.70;9.40;;;;;;5040313;28;20457;-78
2023/09/06 11:54:52;;;;;;;6.10;4.40;;;28.60;9.50;;;;;;5041991;28;20383;-78
2023/09/06 11:57:30;;;;;;;7.90;5.50;;;28.70;9.00;;;;;;5048038;28;20390;-78
2023/09/06 12:00:00;;;;;;;4.97;4.00;;;28.70;9.70;;;;;;5036162;28;20379;-79
2023/09/06 12:02:32;;;;;;;6.13;4.63;;;28.70;10.90;;;;;;5053359;28;20418;-78
2023/09/06 12:05:03;;;;;;;4.80;3.83;;;28.90;10.20;;;;;;5035279;28;20488;-78
2023/09/06 12:07:31;;;;;;;6.65;4.10;;;28.80;9.40;;;;;;5036505;28;20394;-79
2023/09/06 12:09:58;;;;;;;5.45;4.13;;;28.90;10.20;;;;;;5053850;28;20455;-78
2023/09/06 12:12:26;;;;;;;5.68;3.95;;;28.90;9.80;;;;;;5053191;28;20398;-78
2023/09/06 12:14:52;;;;;;;5.83;4.40;;;29.00;10.00;;;;;;5046431;28;20451;-79
2023/09/06 12:17:21;;;;;;;7.80;4.30;;;29.00;10.40;;;;;;5044482;28;20883;-78
2023/09/06 12:19:58;;;;;;;4.78;3.83;;;29.20;11.00;;;;;;5005995;28;20385;-79
2023/09/06 12:22:23;;;;;;;6.72;4.35;;;29.30;10.60;;;;;;5006730;28;20449;-79
2023/09/06 12:24:51;;;;;;;5.03;3.77;;;29.30;9.80;;;;;;5023789;28;20420;-79
2023/09/06 12:27:24;;;;;;;4.15;3.75;;;29.30;9.80;;;;;;5023932;28;20392;-78
2023/09/06 12:29:53;;;;;;;5.90;4.00;;;29.40;8.00;;;;;;5024421;28;20809;-78
2023/09/06 12:32:19;;;;;;;5.10;4.22;;;29.30;8.50;;;;;;5020647;28;20412;-80
2023/09/06 12:34:44;;;;;;;6.00;4.10;;;29.40;9.20;;;;;;5022020;28;20389;-78
2023/09/06 12:37:10;;;;;;;7.50;4.28;;;29.50;7.00;;;;;;5014687;28;20862;-78
2023/09/06 12:39:36;;;;;;;5.17;3.73;;;29.50;6.00;;;;;;4999377;28;20393;-78
2023/09/06 12:42:04;;;;;;;4.50;3.60;;;29.50;6.40;;;;;;4999689;28;20428;-78
2023/09/06 12:44:30;;;;;;;7.97;3.60;;;29.60;6.00;;;;;;5018092;28;20507;-77
2023/09/06 12:46:55;;;;;;;5.43;4.03;;;29.70;6.10;;;;;;5018511;28;20415;-77
2023/09/06 12:49:24;;;;;;;5.32;3.90;;;29.70;7.50;;;;;;5023850;28;20389;-78
2023/09/06 12:51:50;;;;;;;9.40;4.47;;;29.70;7.30;;;;;;5008564;28;20393;-78